createdAt,value
2022-08-28T00:02:46.773Z,26.60
2022-08-28T00:05:34.730Z,26.60
2022-08-28T00:08:22.160Z,26.60
2022-08-28T00:11:09.340Z,26.60
2022-08-28T00:13:58.688Z,26.60
2022-08-28T00:16:46.911Z,26.60
2022-08-28T00:19:38.460Z,26.60
2022-08-28T00:22:25.836Z,26.60
2022-08-28T00:25:16.047Z,26.60
2022-08-28T00:28:09.095Z,26.60
2022-08-28T00:31:00.345Z,26.60
2022-08-28T00:33:48.266Z,26.60
2022-08-28T00:36:35.887Z,26.60
2022-08-28T00:39:22.968Z,26.60
2022-08-28T00:42:10.502Z,26.60
2022-08-28T00:44:57.617Z,26.60
2022-08-28T00:47:46.515Z,26.60
2022-08-28T00:50:56.763Z,26.50
2022-08-28T00:53:47.159Z,26.50
2022-08-28T00:56:35.704Z,26.50
2022-08-28T00:59:26.304Z,26.50
2022-08-28T01:02:13.487Z,26.50
2022-08-28T01:05:02.516Z,26.50
2022-08-28T01:07:52.536Z,26.50
2022-08-28T01:10:41.682Z,26.50
2022-08-28T01:13:30.118Z,26.50
2022-08-28T01:16:19.473Z,26.50
2022-08-28T01:19:13.047Z,26.50
2022-08-28T01:22:16.744Z,26.50
2022-08-28T01:25:11.452Z,26.50
2022-08-28T01:27:59.794Z,26.50
2022-08-28T01:30:49.851Z,26.50
2022-08-28T01:33:37.069Z,26.50
2022-08-28T01:36:50.807Z,26.50
2022-08-28T01:39:38.240Z,26.50
2022-08-28T01:42:26.903Z,26.50
2022-08-28T01:45:17.447Z,26.40
2022-08-28T01:48:05.317Z,26.50
2022-08-28T01:50:52.869Z,26.40
2022-08-28T01:53:45.122Z,26.40
2022-08-28T01:56:34.982Z,26.40
2022-08-28T01:59:24.167Z,26.50
2022-08-28T02:02:11.750Z,26.40
2022-08-28T02:04:59.754Z,26.40
2022-08-28T02:07:47.559Z,26.40
2022-08-28T02:10:38.818Z,26.40
2022-08-28T02:13:26.135Z,26.40
2022-08-28T02:16:15.014Z,26.40
2022-08-28T02:19:02.238Z,26.40
2022-08-28T02:21:49.887Z,26.40
2022-08-28T02:24:37.810Z,26.40
2022-08-28T02:27:25.193Z,26.40
2022-08-28T02:30:17.198Z,26.40
2022-08-28T02:33:06.084Z,26.40
2022-08-28T02:35:53.887Z,26.40
2022-08-28T02:38:41.624Z,26.40
2022-08-28T02:41:28.780Z,26.40
2022-08-28T02:44:17.389Z,26.40
2022-08-28T02:47:04.689Z,26.40
2022-08-28T02:49:53.439Z,26.30
2022-08-28T02:52:41.488Z,26.40
2022-08-28T02:55:33.604Z,26.30
2022-08-28T02:58:21.499Z,26.30
2022-08-28T03:01:11.370Z,26.30
2022-08-28T03:03:58.921Z,26.30
2022-08-28T03:06:47.769Z,26.40
2022-08-28T03:09:35.280Z,26.30
2022-08-28T03:12:24.221Z,26.30
2022-08-28T03:15:12.551Z,26.30
2022-08-28T03:17:59.600Z,26.30
2022-08-28T03:20:47.589Z,26.30
2022-08-28T03:23:36.412Z,26.30
2022-08-28T03:26:24.149Z,26.30
2022-08-28T03:29:11.678Z,26.30
2022-08-28T03:32:00.368Z,26.30
2022-08-28T03:34:47.706Z,26.30
2022-08-28T03:37:34.885Z,26.30
2022-08-28T03:40:23.785Z,26.30
2022-08-28T03:43:12.840Z,26.30
2022-08-28T03:46:04.518Z,26.30
2022-08-28T03:48:52.903Z,26.30
2022-08-28T03:51:42.438Z,26.30
2022-08-28T03:54:31.751Z,26.30
2022-08-28T03:57:21.850Z,26.30
2022-08-28T04:00:13.749Z,26.30
2022-08-28T04:03:01.194Z,26.30
2022-08-28T04:05:48.818Z,26.30
2022-08-28T04:08:36.749Z,26.30
2022-08-28T04:11:23.935Z,26.30
2022-08-28T04:14:13.244Z,26.20
2022-08-28T04:17:01.639Z,26.20
2022-08-28T04:19:48.775Z,26.20
2022-08-28T04:22:37.267Z,26.20
2022-08-28T04:25:24.771Z,26.20
2022-08-28T04:28:12.313Z,26.20
2022-08-28T04:31:01.797Z,26.30
2022-08-28T04:33:49.043Z,26.20
2022-08-28T04:36:36.990Z,26.20
2022-08-28T04:39:23.988Z,26.20
2022-08-28T04:42:11.511Z,26.20
2022-08-28T04:44:59.702Z,26.20
2022-08-28T04:47:48.995Z,26.20
2022-08-28T04:50:36.633Z,26.20
2022-08-28T04:53:27.509Z,26.20
2022-08-28T04:56:16.229Z,26.20
2022-08-28T04:59:04.062Z,26.20
2022-08-28T05:01:52.021Z,26.20
2022-08-28T05:04:40.897Z,26.20
2022-08-28T05:07:28.530Z,26.20
2022-08-28T05:10:15.778Z,26.20
2022-08-28T05:13:03.081Z,26.20
2022-08-28T05:15:52.859Z,26.20
2022-08-28T05:18:39.994Z,26.20
2022-08-28T05:21:29.579Z,26.10
2022-08-28T05:24:17.293Z,26.10
2022-08-28T05:27:05.171Z,26.10
2022-08-28T05:29:52.849Z,26.10
2022-08-28T05:32:40.100Z,26.10
2022-08-28T05:35:27.990Z,26.10
2022-08-28T05:38:18.318Z,26.10
2022-08-28T05:41:05.921Z,26.10
2022-08-28T05:43:54.220Z,26.10
2022-08-28T05:46:47.814Z,26.10
2022-08-28T05:49:35.167Z,26.10
2022-08-28T05:52:22.306Z,26.10
2022-08-28T05:55:13.955Z,26.10
2022-08-28T05:58:21.357Z,26.10
2022-08-28T06:01:12.484Z,26.10
2022-08-28T06:04:03.479Z,26.10
2022-08-28T06:06:50.942Z,26.10
2022-08-28T06:09:38.438Z,26.10
2022-08-28T06:12:27.413Z,26.10
2022-08-28T06:15:15.533Z,26.10
2022-08-28T06:18:02.546Z,26.00
2022-08-28T06:20:50.971Z,26.00
2022-08-28T06:23:39.413Z,26.00
2022-08-28T06:26:27.273Z,26.00
2022-08-28T06:29:18.469Z,26.00
2022-08-28T06:32:09.163Z,26.00
2022-08-28T06:34:56.503Z,26.00
2022-08-28T06:37:44.451Z,26.00
2022-08-28T06:40:31.959Z,26.00
2022-08-28T06:43:21.976Z,26.00
2022-08-28T06:46:10.697Z,26.00
2022-08-28T06:48:58.488Z,26.00
2022-08-28T06:51:46.188Z,26.00
2022-08-28T06:54:33.461Z,26.00
2022-08-28T06:57:20.754Z,26.00
2022-08-28T07:00:09.676Z,26.10
2022-08-28T07:02:58.165Z,26.00
2022-08-28T07:05:45.547Z,26.10
2022-08-28T07:08:34.533Z,26.10
2022-08-28T07:11:26.724Z,26.10
2022-08-28T07:14:14.170Z,26.10
2022-08-28T07:17:01.704Z,26.10
2022-08-28T07:19:50.372Z,26.10
2022-08-28T07:22:37.651Z,26.10
2022-08-28T07:25:25.051Z,26.10
2022-08-28T07:28:12.541Z,26.10
2022-08-28T07:31:01.447Z,26.10
2022-08-28T07:33:50.821Z,26.10
2022-08-28T07:36:43.847Z,26.20
2022-08-28T07:39:31.736Z,26.20
2022-08-28T07:42:35.573Z,26.20
2022-08-28T07:45:23.285Z,26.30
2022-08-28T07:48:11.619Z,26.30
2022-08-28T07:50:59.375Z,26.30
2022-08-28T07:53:48.223Z,26.30
2022-08-28T07:56:40.862Z,26.30
2022-08-28T07:59:36.525Z,26.40
2022-08-28T08:02:24.228Z,26.40
2022-08-28T08:05:12.260Z,26.40
2022-08-28T08:08:01.596Z,26.40
2022-08-28T08:11:00.738Z,26.40
2022-08-28T08:13:50.996Z,26.50
2022-08-28T08:16:43.028Z,26.50
2022-08-28T08:19:30.450Z,26.50
2022-08-28T08:22:18.497Z,26.50
2022-08-28T08:25:07.191Z,26.50
2022-08-28T08:27:55.675Z,26.50
2022-08-28T08:30:42.898Z,26.60
2022-08-28T08:33:30.250Z,26.60
2022-08-28T08:36:20.884Z,26.60
2022-08-28T08:39:09.753Z,26.60
2022-08-28T08:42:00.557Z,26.70
2022-08-28T08:44:52.762Z,26.70
2022-08-28T08:47:45.325Z,26.70
2022-08-28T08:50:36.931Z,26.70
2022-08-28T08:53:32.917Z,26.70
2022-08-28T08:56:21.890Z,26.40
2022-08-28T08:59:14.212Z,26.50
2022-08-28T09:02:08.059Z,26.60
2022-08-28T09:05:03.073Z,26.70
2022-08-28T09:07:57.801Z,26.80
2022-08-28T09:11:02.827Z,26.80
2022-08-28T09:13:56.595Z,26.90
2022-08-28T09:16:46.342Z,26.90
2022-08-28T09:19:35.687Z,26.90
2022-08-28T09:22:22.871Z,27.00
2022-08-28T09:25:13.496Z,27.00
2022-08-28T09:28:10.106Z,27.00
2022-08-28T09:31:04.927Z,27.10
2022-08-28T09:33:53.551Z,27.10
2022-08-28T09:36:42.579Z,27.20
2022-08-28T09:39:32.683Z,27.20
2022-08-28T09:42:41.762Z,27.30
2022-08-28T09:45:30.504Z,27.30
2022-08-28T09:48:23.903Z,27.40
2022-08-28T09:51:13.882Z,27.40
2022-08-28T09:54:09.192Z,27.40
2022-08-28T09:56:57.203Z,27.50
2022-08-28T09:59:44.581Z,27.50
2022-08-28T10:02:44.519Z,27.50
2022-08-28T10:05:42.797Z,27.50
2022-08-28T10:08:49.076Z,27.50
2022-08-28T10:11:48.596Z,27.60
2022-08-28T10:14:51.807Z,27.60
2022-08-28T10:17:52.751Z,27.80
2022-08-28T10:20:51.708Z,28.00
2022-08-28T10:23:57.096Z,28.30
2022-08-28T10:26:52.437Z,28.70
2022-08-28T10:29:51.511Z,29.10
2022-08-28T10:33:08.382Z,29.50
2022-08-28T10:36:03.253Z,29.80
2022-08-28T10:39:03.062Z,30.00
2022-08-28T10:41:57.767Z,30.20
2022-08-28T10:44:52.217Z,30.40
2022-08-28T10:47:43.972Z,30.50
2022-08-28T10:50:43.609Z,30.60
2022-08-28T10:53:37.522Z,30.60
2022-08-28T10:56:31.545Z,30.60
2022-08-28T10:59:20.631Z,30.50
2022-08-28T11:02:10.098Z,30.50
2022-08-28T11:04:59.037Z,30.40
2022-08-28T11:07:52.295Z,30.30
2022-08-28T11:10:49.878Z,30.20
2022-08-28T11:13:50.224Z,30.10
2022-08-28T11:16:45.203Z,30.00
2022-08-28T11:20:09.374Z,29.90
2022-08-28T11:23:02.056Z,29.70
2022-08-28T11:25:58.447Z,29.70
2022-08-28T11:28:48.411Z,29.00
2022-08-28T11:31:42.865Z,29.00
2022-08-28T11:34:59.345Z,29.10
2022-08-28T11:37:54.875Z,29.10
2022-08-28T11:40:58.026Z,29.10
2022-08-28T11:43:46.824Z,29.10
2022-08-28T11:46:36.698Z,29.10
2022-08-28T11:49:44.220Z,29.00
2022-08-28T11:53:22.395Z,29.00
2022-08-28T11:56:54.803Z,28.90
2022-08-28T12:00:07.941Z,28.90
2022-08-28T12:03:10.009Z,28.90
2022-08-28T12:06:01.450Z,28.90
2022-08-28T12:09:06.554Z,28.80
2022-08-28T12:12:02.132Z,28.80
2022-08-28T12:15:09.911Z,28.70
2022-08-28T12:18:02.276Z,28.70
2022-08-28T12:21:03.296Z,28.70
2022-08-28T12:24:09.134Z,28.60
2022-08-28T12:26:57.852Z,28.60
2022-08-28T12:29:50.372Z,28.60
2022-08-28T12:32:45.972Z,28.60
2022-08-28T12:35:33.408Z,28.50
2022-08-28T12:38:23.470Z,28.50
2022-08-28T12:41:17.294Z,28.50
2022-08-28T12:44:09.010Z,28.50
2022-08-28T12:46:57.089Z,28.50
2022-08-28T12:49:44.543Z,28.50
2022-08-28T12:52:34.022Z,28.40
2022-08-28T12:55:24.700Z,28.40
2022-08-28T12:58:29.543Z,28.40
2022-08-28T13:01:26.067Z,28.40
2022-08-28T13:04:28.887Z,28.40
2022-08-28T13:07:19.131Z,28.40
2022-08-28T13:10:20.748Z,28.40
2022-08-28T13:13:21.182Z,28.40
2022-08-28T13:16:10.284Z,28.40
2022-08-28T13:19:27.877Z,28.40
2022-08-28T13:22:34.964Z,28.40
2022-08-28T13:25:25.143Z,28.40
2022-08-28T13:28:17.751Z,28.40
2022-08-28T13:31:05.580Z,28.40
2022-08-28T13:34:13.125Z,28.40
2022-08-28T13:37:02.680Z,28.40
2022-08-28T13:39:53.397Z,28.40
2022-08-28T13:42:40.687Z,28.30
2022-08-28T13:45:42.353Z,28.40
2022-08-28T13:48:31.461Z,28.40
2022-08-28T13:51:20.959Z,28.40
2022-08-28T13:54:08.764Z,28.40
2022-08-28T13:56:58.897Z,28.30
2022-08-28T13:59:46.292Z,28.30
2022-08-28T14:02:52.601Z,28.30
2022-08-28T14:05:39.742Z,28.40
2022-08-28T14:08:27.068Z,28.40
2022-08-28T14:11:16.362Z,28.40
2022-08-28T14:14:03.811Z,28.40
2022-08-28T14:16:54.187Z,28.40
2022-08-28T14:19:43.059Z,28.40
2022-08-28T14:22:31.030Z,28.30
2022-08-28T14:25:18.562Z,28.30
2022-08-28T14:28:05.809Z,28.30
2022-08-28T14:30:53.627Z,28.30
2022-08-28T14:33:41.711Z,28.30
2022-08-28T14:36:32.250Z,28.30
2022-08-28T14:39:19.519Z,28.30
2022-08-28T14:42:07.803Z,28.30
2022-08-28T14:45:00.903Z,28.30
2022-08-28T14:47:48.318Z,28.30
2022-08-28T14:50:42.010Z,28.30
2022-08-28T14:53:30.458Z,28.30
2022-08-28T14:56:17.953Z,28.30
2022-08-28T14:59:13.416Z,28.30
2022-08-28T15:02:03.426Z,28.30
2022-08-28T15:04:50.501Z,28.30
2022-08-28T15:07:37.838Z,28.30
2022-08-28T15:10:26.440Z,28.30
2022-08-28T15:13:15.158Z,28.20
2022-08-28T15:16:05.287Z,28.30
2022-08-28T15:19:04.287Z,28.30
2022-08-28T15:21:54.859Z,28.30
2022-08-28T15:24:42.120Z,28.30
2022-08-28T15:27:30.965Z,28.30
2022-08-28T15:30:18.652Z,28.30
2022-08-28T15:33:07.074Z,28.30
2022-08-28T15:35:56.835Z,28.30
2022-08-28T15:39:01.370Z,28.30
2022-08-28T15:41:48.612Z,28.30
2022-08-28T15:44:37.415Z,28.20
2022-08-28T15:47:25.034Z,28.30
2022-08-28T15:50:12.517Z,28.30
2022-08-28T15:52:59.995Z,28.30
2022-08-28T15:55:47.174Z,28.20
2022-08-28T15:58:34.585Z,28.20
2022-08-28T16:01:23.601Z,28.20
2022-08-28T16:04:11.230Z,28.20
2022-08-28T16:07:00.582Z,28.20
2022-08-28T16:09:48.927Z,28.20
2022-08-28T16:12:39.626Z,28.20
2022-08-28T16:15:27.199Z,28.20
2022-08-28T16:18:16.952Z,28.20
2022-08-28T16:21:05.283Z,28.20
2022-08-28T16:23:52.568Z,28.20
2022-08-28T16:26:39.956Z,28.20
2022-08-28T16:29:27.290Z,28.20
2022-08-28T16:32:14.888Z,28.20
2022-08-28T16:35:05.489Z,28.20
2022-08-28T16:37:54.572Z,28.20
2022-08-28T16:40:43.614Z,28.20
2022-08-28T16:43:31.089Z,28.10
2022-08-28T16:46:22.127Z,28.20
2022-08-28T16:49:10.973Z,28.20
2022-08-28T16:51:59.790Z,28.20
2022-08-28T16:54:53.315Z,28.20
2022-08-28T16:57:40.756Z,28.20
2022-08-28T17:00:28.404Z,28.20
2022-08-28T17:03:15.387Z,28.20
2022-08-28T17:06:09.974Z,28.20
2022-08-28T17:08:59.789Z,28.10
2022-08-28T17:11:51.696Z,28.20
2022-08-28T17:14:39.814Z,28.10
2022-08-28T17:17:26.900Z,28.10
2022-08-28T17:20:30.026Z,28.10
2022-08-28T17:23:18.104Z,28.10
2022-08-28T17:26:07.356Z,28.10
2022-08-28T17:28:54.604Z,28.10
2022-08-28T17:31:42.137Z,28.10
2022-08-28T17:34:30.538Z,28.10
2022-08-28T17:37:20.622Z,28.10
2022-08-28T17:40:11.801Z,28.00
2022-08-28T17:43:00.485Z,28.00
2022-08-28T17:45:47.622Z,28.00
2022-08-28T17:48:36.583Z,28.00
2022-08-28T17:51:43.004Z,28.00
2022-08-28T17:54:32.046Z,28.00
2022-08-28T17:57:19.452Z,28.00
2022-08-28T18:00:13.439Z,28.00
2022-08-28T18:03:00.626Z,27.90
2022-08-28T18:05:47.829Z,27.90
2022-08-28T18:08:35.291Z,27.90
2022-08-28T18:11:23.588Z,27.80
2022-08-28T18:14:11.793Z,27.80
2022-08-28T18:17:00.460Z,27.80
2022-08-28T18:19:47.569Z,27.80
2022-08-28T18:22:35.136Z,27.70
2022-08-28T18:25:40.535Z,27.70
2022-08-28T18:28:29.261Z,27.70
2022-08-28T18:31:16.586Z,27.70
2022-08-28T18:34:05.400Z,27.60
2022-08-28T18:36:52.685Z,27.60
2022-08-28T18:39:40.287Z,27.60
2022-08-28T18:42:29.471Z,27.60
2022-08-28T18:45:16.886Z,27.50
2022-08-28T18:48:07.978Z,27.50
2022-08-28T18:50:56.648Z,27.50
2022-08-28T18:53:44.500Z,27.50
2022-08-28T18:56:33.629Z,27.50
2022-08-28T18:59:23.268Z,27.50
2022-08-28T19:02:10.544Z,27.40
2022-08-28T19:04:57.847Z,27.40
2022-08-28T19:07:46.345Z,27.40
2022-08-28T19:10:34.970Z,27.40
2022-08-28T19:13:22.753Z,27.30
2022-08-28T19:16:10.526Z,27.30
2022-08-28T19:18:57.850Z,27.30
2022-08-28T19:21:45.150Z,27.30
2022-08-28T19:24:34.796Z,27.30
2022-08-28T19:27:22.597Z,27.20
2022-08-28T19:30:14.549Z,27.20
2022-08-28T19:33:02.716Z,27.20
2022-08-28T19:35:50.153Z,27.20
2022-08-28T19:38:37.670Z,27.20
2022-08-28T19:41:27.772Z,27.10
2022-08-28T19:44:16.604Z,27.10
2022-08-28T19:47:04.015Z,27.10
2022-08-28T19:49:54.876Z,27.10
2022-08-28T19:52:45.525Z,27.10
2022-08-28T19:55:33.509Z,27.00
2022-08-28T19:58:22.302Z,27.10
2022-08-28T20:01:09.952Z,27.00
2022-08-28T20:03:58.457Z,27.00
2022-08-28T20:06:46.840Z,27.00
2022-08-28T20:09:35.160Z,26.90
2022-08-28T20:12:22.978Z,26.90
2022-08-28T20:15:14.685Z,26.90
2022-08-28T20:18:03.178Z,26.90
2022-08-28T20:20:52.244Z,26.80
2022-08-28T20:23:40.380Z,26.80
2022-08-28T20:26:28.281Z,26.80
2022-08-28T20:29:17.043Z,26.80
2022-08-28T20:32:06.016Z,26.80
2022-08-28T20:34:53.397Z,26.70
2022-08-28T20:37:45.495Z,26.70
2022-08-28T20:40:33.428Z,26.70
2022-08-28T20:43:20.661Z,26.60
2022-08-28T20:46:08.700Z,26.60
2022-08-28T20:48:57.365Z,26.60
2022-08-28T20:51:56.980Z,26.60
2022-08-28T20:54:44.462Z,26.60
2022-08-28T20:57:31.531Z,26.50
2022-08-28T21:00:18.921Z,26.50
2022-08-28T21:03:06.969Z,26.50
2022-08-28T21:05:55.652Z,26.50
2022-08-28T21:08:43.018Z,26.50
2022-08-28T21:11:31.256Z,26.40
2022-08-28T21:14:18.829Z,26.50
2022-08-28T21:17:07.775Z,26.40
2022-08-28T21:19:55.200Z,26.40
2022-08-28T21:22:44.597Z,26.40
2022-08-28T21:25:31.964Z,26.40
2022-08-28T21:28:19.104Z,26.40
2022-08-28T21:31:11.068Z,26.30
2022-08-28T21:33:58.369Z,26.30
2022-08-28T21:36:50.431Z,26.30
2022-08-28T21:39:39.211Z,26.30
2022-08-28T21:42:26.622Z,26.30
2022-08-28T21:45:14.246Z,26.20
2022-08-28T21:48:01.681Z,26.20
2022-08-28T21:50:49.091Z,26.20
2022-08-28T21:53:42.241Z,26.20
2022-08-28T21:56:32.198Z,26.10
2022-08-28T21:59:19.837Z,26.10
2022-08-28T22:02:08.844Z,26.10
2022-08-28T22:04:56.227Z,26.10
2022-08-28T22:07:45.110Z,26.10
2022-08-28T22:10:33.553Z,26.10
2022-08-28T22:13:23.914Z,26.10
2022-08-28T22:16:11.444Z,26.10
2022-08-28T22:18:58.851Z,26.00
2022-08-28T22:22:03.545Z,26.00
2022-08-28T22:24:50.822Z,26.00
2022-08-28T22:27:38.182Z,26.00
2022-08-28T22:30:26.994Z,26.00
2022-08-28T22:33:14.397Z,26.00
2022-08-28T22:36:01.546Z,26.00
2022-08-28T22:38:53.143Z,26.00
2022-08-28T22:41:40.739Z,26.00
2022-08-28T22:44:27.914Z,26.00
2022-08-28T22:47:16.583Z,25.90
2022-08-28T22:50:08.538Z,26.00
2022-08-28T22:52:56.229Z,25.90
2022-08-28T22:55:44.411Z,25.90
2022-08-28T22:58:33.753Z,25.90
2022-08-28T23:01:24.673Z,25.90
2022-08-28T23:04:13.853Z,25.90
2022-08-28T23:07:01.739Z,25.90
2022-08-28T23:09:49.308Z,25.90
2022-08-28T23:12:36.676Z,25.90
2022-08-28T23:15:24.579Z,25.80
2022-08-28T23:18:12.293Z,25.90
2022-08-28T23:21:01.507Z,25.80
2022-08-28T23:23:48.978Z,25.80
2022-08-28T23:26:36.742Z,25.80
2022-08-28T23:29:24.239Z,25.80
2022-08-28T23:32:11.637Z,25.80
2022-08-28T23:34:58.871Z,25.80
2022-08-28T23:37:51.889Z,25.80
2022-08-28T23:40:39.766Z,25.80
2022-08-28T23:43:27.693Z,25.80
2022-08-28T23:46:17.300Z,25.70
2022-08-28T23:49:04.508Z,25.80
2022-08-28T23:51:52.313Z,25.80
2022-08-28T23:54:41.269Z,25.70
2022-08-28T23:57:28.805Z,25.70
